Time;durP1;ratioP1;P1;durP2;ratioP2;P2;SDS_P1;SDS_P2;PMS_P1;PMS_P2;Temp;Humidity;BMP_temperature;BMP_pressure;BME280_temperature;BME280_humidity;BME280_pressure;Samples;Min_cycle;Max_cycle;Signal;HPM_P1;HPM_P2
2022/07/29 00:01:22;;;;;;;3.60;0.90;;;15.70;99.90;;;;;;5034414;28;40363;-64
2022/07/29 00:03:49;;;;;;;5.70;1.10;;;15.70;99.90;;;;;;5033962;28;37583;-64
2022/07/29 00:06:16;;;;;;;3.60;1.08;;;15.70;99.90;;;;;;5033784;28;36341;-64
2022/07/29 00:08:45;;;;;;;5.13;1.05;;;15.70;99.90;;;;;;5034147;28;36754;-64
2022/07/29 00:11:12;;;;;;;2.42;0.75;;;15.70;99.90;;;;;;5033795;28;37161;-64
2022/07/29 00:13:40;;;;;;;4.78;1.00;;;15.70;99.90;;;;;;5053997;28;38321;-64
2022/07/29 00:16:07;;;;;;;3.38;1.20;;;15.70;99.90;;;;;;5055473;28;36055;-64
2022/07/29 00:18:34;;;;;;;6.03;1.80;;;15.70;99.90;;;;;;5054223;28;36397;-64
2022/07/29 00:21:02;;;;;;;3.33;0.98;;;15.70;99.90;;;;;;5055083;28;37891;-64
2022/07/29 00:23:29;;;;;;;3.88;1.30;;;15.80;99.90;;;;;;5053558;28;37466;-64
2022/07/29 00:25:58;;;;;;;3.08;1.10;;;15.70;99.90;;;;;;5054365;28;38397;-65
2022/07/29 00:28:25;;;;;;;3.78;1.23;;;15.80;99.90;;;;;;5051211;28;36532;-64
2022/07/29 00:30:52;;;;;;;5.28;1.45;;;15.80;99.90;;;;;;5054668;28;36184;-64
2022/07/29 00:33:20;;;;;;;2.20;0.95;;;15.80;99.90;;;;;;5055223;28;37579;-64
2022/07/29 00:35:47;;;;;;;2.63;1.02;;;15.80;99.90;;;;;;5053701;28;37123;-64
2022/07/29 00:38:16;;;;;;;5.68;1.10;;;15.70;99.90;;;;;;5053663;28;36306;-64
2022/07/29 00:40:44;;;;;;;4.60;1.42;;;15.80;99.90;;;;;;5054199;28;37608;-64
2022/07/29 00:43:14;;;;;;;4.50;1.13;;;15.80;99.90;;;;;;5053684;28;37446;-64
2022/07/29 00:45:42;;;;;;;2.50;1.13;;;15.80;99.90;;;;;;5052707;28;37998;-64
2022/07/29 00:48:11;;;;;;;6.60;1.73;;;15.70;99.90;;;;;;5056241;28;20180;-64
2022/07/29 00:50:38;;;;;;;4.65;1.25;;;15.80;99.90;;;;;;5054032;28;37913;-64
2022/07/29 00:53:07;;;;;;;4.82;1.35;;;15.80;99.90;;;;;;5054137;28;36489;-64
2022/07/29 00:55:36;;;;;;;2.60;1.05;;;15.80;99.90;;;;;;5053707;28;37244;-64
2022/07/29 00:58:04;;;;;;;3.95;1.20;;;15.80;99.90;;;;;;5051944;28;36123;-63
2022/07/29 01:00:32;;;;;;;2.63;1.00;;;15.80;99.90;;;;;;5052449;28;36568;-64
2022/07/29 01:03:00;;;;;;;3.47;0.95;;;15.80;99.90;;;;;;5053523;28;36764;-64
2022/07/29 01:05:29;;;;;;;1.65;0.95;;;15.80;99.90;;;;;;5054454;28;37451;-64
2022/07/29 01:07:58;;;;;;;4.07;1.33;;;15.80;99.90;;;;;;5055755;28;36357;-64
2022/07/29 01:10:26;;;;;;;4.40;1.30;;;15.80;99.90;;;;;;5051018;28;38112;-64
2022/07/29 01:12:55;;;;;;;2.65;1.05;;;15.80;99.90;;;;;;5056176;28;36460;-64
2022/07/29 01:15:23;;;;;;;3.15;1.13;;;15.80;99.90;;;;;;5054328;28;36972;-64
2022/07/29 01:17:58;;;;;;;6.00;1.40;;;15.80;99.90;;;;;;5055603;28;35412;-64
2022/07/29 01:20:39;;;;;;;4.40;1.25;;;15.80;99.90;;;;;;5055895;28;37550;-64
2022/07/29 01:23:41;;;;;;;4.93;1.00;;;15.80;99.90;;;;;;5052794;28;37492;-63
2022/07/29 01:26:34;;;;;;;8.93;1.52;;;15.80;99.90;;;;;;5048860;28;37678;-63
2022/07/29 01:29:11;;;;;;;4.10;1.30;;;15.90;99.90;;;;;;5052004;28;38365;-64
2022/07/29 01:31:46;;;;;;;3.30;1.27;;;15.80;99.90;;;;;;5055612;28;37516;-63
2022/07/29 01:34:21;;;;;;;2.00;1.30;;;15.80;99.90;;;;;;5055278;28;37613;-63
2022/07/29 01:36:52;;;;;;;5.22;1.33;;;15.80;99.90;;;;;;5055516;28;37008;-64
2022/07/29 01:39:24;;;;;;;3.65;1.13;;;15.80;99.90;;;;;;5056159;28;37379;-63
2022/07/29 01:42:07;;;;;;;4.17;1.00;;;15.80;99.90;;;;;;5058053;28;37504;-64
2022/07/29 01:44:40;;;;;;;3.53;1.15;;;15.80;99.90;;;;;;5057213;28;37446;-63
2022/07/29 01:47:13;;;;;;;3.60;1.60;;;15.80;99.90;;;;;;5059454;28;38098;-63
2022/07/29 01:49:46;;;;;;;4.67;1.33;;;15.80;99.90;;;;;;5057145;28;36575;-63
2022/07/29 01:52:22;;;;;;;3.53;1.30;;;15.70;99.90;;;;;;5057871;28;37340;-63
2022/07/29 01:54:55;;;;;;;3.65;1.27;;;15.70;99.90;;;;;;5057172;28;37618;-64
2022/07/29 01:57:27;;;;;;;;;;;15.70;99.90;;;;;;5057900;28;41333;-63
2022/07/29 01:59:56;;;;;;;5.03;1.50;;;15.70;99.90;;;;;;5057200;28;37006;-63
2022/07/29 02:02:25;;;;;;;5.30;2.10;;;15.70;99.90;;;;;;5057803;28;37462;-63
2022/07/29 02:04:55;;;;;;;3.78;1.35;;;15.70;99.90;;;;;;5058647;28;38988;-64
2022/07/29 02:07:28;;;;;;;3.92;1.38;;;15.70;99.90;;;;;;5058599;28;36698;-63
2022/07/29 02:09:57;;;;;;;5.53;1.73;;;15.70;99.90;;;;;;5056865;28;37238;-63
2022/07/29 02:12:26;;;;;;;3.35;1.30;;;15.70;99.90;;;;;;5057204;28;39908;-64
2022/07/29 02:14:57;;;;;;;6.05;1.63;;;15.70;99.90;;;;;;5058454;28;39419;-64
2022/07/29 02:17:28;;;;;;;5.28;2.03;;;15.70;99.90;;;;;;5056661;28;38151;-64
2022/07/29 02:20:00;;;;;;;5.03;1.88;;;15.70;99.90;;;;;;5056677;28;37840;-63
2022/07/29 02:22:30;;;;;;;3.10;1.33;;;15.70;99.90;;;;;;5056506;28;37278;-63
2022/07/29 02:24:59;;;;;;;2.55;1.35;;;15.70;99.90;;;;;;5056793;28;36326;-63
2022/07/29 02:27:28;;;;;;;5.20;1.23;;;15.70;99.90;;;;;;5056187;28;37544;-63
2022/07/29 02:29:59;;;;;;;4.05;1.17;;;15.70;99.90;;;;;;5057595;28;35365;-63
2022/07/29 02:32:28;;;;;;;5.45;1.75;;;15.70;99.90;;;;;;5057961;28;36204;-63
2022/07/29 02:34:57;;;;;;;2.78;1.27;;;15.70;99.90;;;;;;5057661;28;37522;-63
2022/07/29 02:37:25;;;;;;;6.55;1.40;;;15.70;99.90;;;;;;5056913;28;37448;-64
2022/07/29 02:39:54;;;;;;;3.15;1.20;;;15.70;99.90;;;;;;5057417;28;36787;-64
2022/07/29 02:42:23;;;;;;;4.57;1.38;;;15.70;99.90;;;;;;5058134;28;37514;-64
2022/07/29 02:44:51;;;;;;;4.68;1.35;;;15.70;99.90;;;;;;5058183;28;38191;-63
2022/07/29 02:47:24;;;;;;;5.63;1.40;;;15.70;99.90;;;;;;5057060;28;37327;-64
2022/07/29 02:49:57;;;;;;;3.80;1.33;;;15.70;99.90;;;;;;5058305;28;37040;-63
2022/07/29 02:52:28;;;;;;;4.30;1.15;;;15.70;99.90;;;;;;5055853;28;37633;-64
2022/07/29 02:54:59;;;;;;;7.55;2.63;;;15.70;99.90;;;;;;5053316;28;37937;-63
2022/07/29 02:57:34;;;;;;;5.50;1.30;;;15.70;99.90;;;;;;5054865;28;38812;-63
2022/07/29 03:00:05;;;;;;;5.30;1.52;;;15.70;99.90;;;;;;5055739;28;36701;-64
2022/07/29 03:02:38;;;;;;;3.50;1.25;;;15.70;99.90;;;;;;5057195;28;38555;-63
2022/07/29 03:05:08;;;;;;;5.45;1.20;;;15.70;99.90;;;;;;5057757;28;37846;-64
2022/07/29 03:07:37;;;;;;;4.13;1.40;;;15.70;99.90;;;;;;5056479;28;37395;-63
2022/07/29 03:10:07;;;;;;;7.90;1.70;;;15.70;99.90;;;;;;5056547;28;37846;-63
2022/07/29 03:12:35;;;;;;;4.93;1.52;;;15.70;99.90;;;;;;5056613;28;36882;-63
2022/07/29 03:15:03;;;;;;;5.68;1.63;;;15.70;99.90;;;;;;5056639;28;37566;-63
2022/07/29 03:17:32;;;;;;;4.38;1.52;;;15.70;99.90;;;;;;5056715;28;37821;-64
2022/07/29 03:20:01;;;;;;;4.38;1.30;;;15.70;99.90;;;;;;5056845;28;37046;-63
2022/07/29 03:22:29;;;;;;;6.38;1.42;;;15.70;99.90;;;;;;5056006;28;40594;-63
2022/07/29 03:24:56;;;;;;;4.13;1.50;;;15.70;99.90;;;;;;5057035;28;37849;-63
2022/07/29 03:27:24;;;;;;;4.70;1.65;;;15.70;99.90;;;;;;5055936;28;37312;-64
2022/07/29 03:29:51;;;;;;;5.63;1.65;;;15.70;99.90;;;;;;5057195;28;35175;-63
2022/07/29 03:32:18;;;;;;;5.07;2.30;;;15.60;99.90;;;;;;5057086;28;37566;-64
2022/07/29 03:34:46;;;;;;;4.72;1.60;;;15.70;99.90;;;;;;5057785;28;36726;-64
2022/07/29 03:37:14;;;;;;;5.03;1.85;;;15.70;99.90;;;;;;5055934;28;37790;-62
2022/07/29 03:39:43;;;;;;;4.25;1.60;;;15.60;99.90;;;;;;5055380;28;35965;-63
2022/07/29 03:42:15;;;;;;;6.72;1.27;;;15.60;99.90;;;;;;5054761;28;36446;-63
2022/07/29 03:44:44;;;;;;;4.20;1.40;;;15.70;99.90;;;;;;5055792;28;36360;-64
2022/07/29 03:47:14;;;;;;;7.22;1.50;;;15.60;99.90;;;;;;5055396;28;37511;-63
2022/07/29 03:49:43;;;;;;;4.05;1.42;;;15.60;99.90;;;;;;5055997;28;35244;-63
2022/07/29 03:52:11;;;;;;;5.10;1.27;;;15.60;99.90;;;;;;5054442;28;36368;-64
2022/07/29 03:54:40;;;;;;;7.70;1.42;;;15.60;99.90;;;;;;5054647;28;37331;-64
2022/07/29 03:57:11;;;;;;;4.32;1.42;;;15.60;99.90;;;;;;5057452;28;35943;-63
2022/07/29 03:59:39;;;;;;;4.75;1.40;;;15.60;99.90;;;;;;5056853;28;36618;-63
2022/07/29 04:02:11;;;;;;;7.13;1.40;;;15.60;99.90;;;;;;5055527;28;38076;-63
2022/07/29 04:04:39;;;;;;;8.02;1.48;;;15.60;99.90;;;;;;5054222;28;40459;-63
2022/07/29 04:07:06;;;;;;;6.57;1.40;;;15.60;99.90;;;;;;5055487;28;38678;-63
2022/07/29 04:09:33;;;;;;;5.35;1.88;;;15.60;99.90;;;;;;5054904;28;36561;-63
2022/07/29 04:12:02;;;;;;;3.88;1.48;;;15.60;99.90;;;;;;5055668;28;37502;-64
2022/07/29 04:14:30;;;;;;;3.72;1.50;;;15.60;99.90;;;;;;5055906;28;37808;-64
2022/07/29 04:16:57;;;;;;;9.23;1.60;;;15.70;99.90;;;;;;5056836;28;37291;-64
2022/07/29 04:19:24;;;;;;;4.38;1.42;;;15.70;99.90;;;;;;5054212;28;36395;-63
2022/07/29 04:21:52;;;;;;;4.22;1.10;;;15.60;99.90;;;;;;5054899;28;37329;-63
2022/07/29 04:24:19;;;;;;;5.60;1.20;;;15.70;99.90;;;;;;5053334;28;38104;-63
2022/07/29 04:26:47;;;;;;;3.92;1.33;;;15.60;99.90;;;;;;5056757;28;35748;-64
2022/07/29 04:29:16;;;;;;;4.90;1.33;;;15.60;99.90;;;;;;5055232;28;35312;-63
2022/07/29 04:31:44;;;;;;;5.13;1.77;;;15.70;99.90;;;;;;5056105;28;36144;-63
2022/07/29 04:34:12;;;;;;;4.35;1.40;;;15.60;99.90;;;;;;5055474;28;37892;-64
2022/07/29 04:36:39;;;;;;;11.57;2.03;;;15.60;99.90;;;;;;5055583;28;37387;-63
2022/07/29 04:39:06;;;;;;;5.95;1.23;;;15.70;99.90;;;;;;5054776;28;37870;-63
2022/07/29 04:41:34;;;;;;;4.85;1.45;;;15.70;99.90;;;;;;5056283;28;39267;-63
2022/07/29 04:44:04;;;;;;;4.68;1.80;;;15.70;99.90;;;;;;5054285;28;38342;-64
2022/07/29 04:46:33;;;;;;;7.00;1.50;;;15.70;99.90;;;;;;5054529;28;37380;-63
2022/07/29 04:49:01;;;;;;;7.15;1.50;;;15.70;99.90;;;;;;5054932;28;38512;-63
2022/07/29 04:51:28;;;;;;;4.35;1.60;;;15.70;99.90;;;;;;5057974;28;37231;-63
2022/07/29 04:53:55;;;;;;;6.70;2.13;;;15.70;99.90;;;;;;5055304;28;37128;-63
2022/07/29 04:56:23;;;;;;;4.20;1.63;;;15.70;99.90;;;;;;5055966;28;37541;-63
2022/07/29 04:58:50;;;;;;;6.45;1.73;;;15.80;99.90;;;;;;5055298;28;38003;-64
2022/07/29 05:01:17;;;;;;;4.75;1.10;;;15.70;99.90;;;;;;5056526;28;38206;-64
2022/07/29 05:03:46;;;;;;;4.75;1.42;;;15.80;99.90;;;;;;5054741;28;37523;-64
2022/07/29 05:06:14;;;;;;;5.50;1.40;;;15.80;99.90;;;;;;5055301;28;37381;-63
2022/07/29 05:08:41;;;;;;;4.13;1.50;;;15.80;99.90;;;;;;5057039;28;36617;-63
2022/07/29 05:11:08;;;;;;;5.65;1.52;;;15.80;99.90;;;;;;5055672;28;37597;-63
2022/07/29 05:13:35;;;;;;;4.80;1.50;;;15.80;99.90;;;;;;5055136;28;38207;-63
2022/07/29 05:16:03;;;;;;;7.40;1.60;;;15.80;99.90;;;;;;5058974;28;37661;-63
2022/07/29 05:18:30;;;;;;;7.65;1.65;;;15.90;99.90;;;;;;5059428;28;35318;-63
2022/07/29 05:20:59;;;;;;;4.13;1.33;;;15.90;99.90;;;;;;5059360;28;36338;-63
2022/07/29 05:23:26;;;;;;;5.43;1.35;;;15.90;99.90;;;;;;5059746;28;36332;-64
2022/07/29 05:25:53;;;;;;;4.80;1.67;;;15.90;99.90;;;;;;5059433;28;37557;-63
2022/07/29 05:28:21;;;;;;;6.72;1.42;;;16.00;99.90;;;;;;5057042;28;36535;-64
2022/07/29 05:30:49;;;;;;;4.50;1.40;;;16.00;99.90;;;;;;5057618;28;36899;-63
2022/07/29 05:33:16;;;;;;;5.05;1.40;;;16.00;99.90;;;;;;5060088;28;39451;-64
2022/07/29 05:35:43;;;;;;;7.47;2.40;;;16.00;99.90;;;;;;5058678;28;37756;-63
2022/07/29 05:38:12;;;;;;;4.18;1.50;;;16.10;99.90;;;;;;5058185;28;36750;-63
2022/07/29 05:40:39;;;;;;;3.70;1.52;;;16.10;99.90;;;;;;5055520;28;37219;-63
2022/07/29 05:43:07;;;;;;;4.65;1.40;;;16.10;99.90;;;;;;5057597;28;37886;-62
2022/07/29 05:45:34;;;;;;;7.07;1.75;;;16.10;99.90;;;;;;5059542;28;37865;-63
2022/07/29 05:48:02;;;;;;;4.90;1.30;;;16.20;99.90;;;;;;5058478;28;34162;-63
2022/07/29 05:50:29;;;;;;;4.93;1.33;;;16.20;99.90;;;;;;5059168;28;37687;-63
2022/07/29 05:52:56;;;;;;;4.35;1.45;;;16.20;99.90;;;;;;5058660;28;38326;-63
2022/07/29 05:55:25;;;;;;;6.80;2.00;;;16.30;99.90;;;;;;5058398;28;36719;-64
2022/07/29 05:57:53;;;;;;;6.45;1.73;;;16.30;99.90;;;;;;5057441;28;36389;-63
2022/07/29 06:00:20;;;;;;;5.35;1.50;;;16.30;99.90;;;;;;5058523;28;39868;-64
2022/07/29 06:02:48;;;;;;;3.28;1.45;;;16.30;99.90;;;;;;5057840;28;37707;-64
2022/07/29 06:05:15;;;;;;;11.10;1.60;;;16.30;99.90;;;;;;5059810;28;38945;-64
2022/07/29 06:07:43;;;;;;;10.38;2.00;;;16.40;99.90;;;;;;5059478;28;37082;-64
2022/07/29 06:10:10;;;;;;;11.93;1.83;;;16.40;99.90;;;;;;5058314;28;37918;-64
2022/07/29 06:12:39;;;;;;;8.93;1.55;;;16.40;99.90;;;;;;5057182;28;36333;-63
2022/07/29 06:15:07;;;;;;;5.38;1.45;;;16.50;99.90;;;;;;5059037;28;36178;-63
2022/07/29 06:17:34;;;;;;;5.65;1.30;;;16.60;99.90;;;;;;5057381;28;36770;-64
2022/07/29 06:20:02;;;;;;;5.43;1.60;;;16.70;99.90;;;;;;5057164;28;36505;-64
2022/07/29 06:22:30;;;;;;;6.47;1.48;;;16.70;99.80;;;;;;5059702;28;37796;-64
2022/07/29 06:24:57;;;;;;;7.85;2.00;;;16.80;99.90;;;;;;5058083;28;36100;-64
2022/07/29 06:27:24;;;;;;;4.32;1.58;;;16.90;99.90;;;;;;5057994;28;36547;-64
2022/07/29 06:29:53;;;;;;;6.30;1.90;;;17.00;99.90;;;;;;5058057;28;38600;-64
2022/07/29 06:32:21;;;;;;;4.35;1.52;;;17.20;99.60;;;;;;5057841;28;38527;-63
2022/07/29 06:34:48;;;;;;;5.32;1.95;;;17.20;99.70;;;;;;5058337;28;38495;-64
2022/07/29 06:37:17;;;;;;;7.22;1.65;;;17.20;99.70;;;;;;5057919;28;36441;-63
2022/07/29 06:39:44;;;;;;;4.78;1.30;;;17.30;99.60;;;;;;5057934;28;37893;-64
2022/07/29 06:42:12;;;;;;;9.32;1.60;;;17.30;99.10;;;;;;5058172;28;37561;-63
2022/07/29 06:44:39;;;;;;;18.00;2.13;;;17.30;99.10;;;;;;5058189;28;36073;-64
2022/07/29 06:47:08;;;;;;;5.00;1.65;;;17.40;99.10;;;;;;5057389;28;36687;-63
2022/07/29 06:49:35;;;;;;;5.32;1.40;;;17.50;99.00;;;;;;5057205;28;38074;-64
2022/07/29 06:52:03;;;;;;;6.25;1.33;;;17.60;98.70;;;;;;5057905;28;38441;-64
2022/07/29 06:54:30;;;;;;;6.10;1.40;;;17.70;98.40;;;;;;5057727;28;38045;-64
2022/07/29 06:56:58;;;;;;;5.82;2.15;;;17.70;97.90;;;;;;5058330;28;36245;-63
2022/07/29 06:59:26;;;;;;;3.63;1.40;;;17.70;98.00;;;;;;5056847;28;38030;-64
2022/07/29 07:01:53;;;;;;;5.82;1.52;;;17.70;97.90;;;;;;5057829;28;38153;-64
2022/07/29 07:04:22;;;;;;;5.93;1.95;;;17.60;97.80;;;;;;5056945;28;37884;-63
2022/07/29 07:06:49;;;;;;;7.32;2.00;;;17.60;98.00;;;;;;5057838;28;35458;-64
2022/07/29 07:09:16;;;;;;;6.95;1.40;;;17.60;98.10;;;;;;5056574;28;39328;-63
2022/07/29 07:11:44;;;;;;;6.13;1.75;;;17.60;97.90;;;;;;5055777;28;37786;-64
2022/07/29 07:14:11;;;;;;;3.97;1.52;;;17.60;97.80;;;;;;5058992;28;37463;-63
2022/07/29 07:16:38;;;;;;;7.32;1.48;;;17.60;98.20;;;;;;5057695;28;37265;-64
2022/07/29 07:19:06;;;;;;;6.72;1.90;;;17.60;97.80;;;;;;5055428;28;36388;-64
2022/07/29 07:21:35;;;;;;;8.98;2.30;;;17.60;97.60;;;;;;5056853;28;38602;-64
2022/07/29 07:24:02;;;;;;;7.45;1.83;;;17.60;97.60;;;;;;5056961;28;36098;-64
2022/07/29 07:26:30;;;;;;;5.55;2.00;;;17.70;97.60;;;;;;5056071;28;36411;-64
2022/07/29 07:28:57;;;;;;;9.52;2.00;;;17.70;97.60;;;;;;5056048;28;39196;-64
2022/07/29 07:31:25;;;;;;;5.05;1.80;;;17.70;97.40;;;;;;5058559;28;36692;-64
2022/07/29 07:33:53;;;;;;;8.13;1.50;;;17.70;97.50;;;;;;5057407;28;37497;-64
2022/07/29 07:36:20;;;;;;;6.47;1.77;;;17.70;97.30;;;;;;5058585;28;36540;-64
2022/07/29 07:38:49;;;;;;;5.05;1.55;;;17.70;97.20;;;;;;5056723;28;37725;-64
2022/07/29 07:41:17;;;;;;;6.63;1.88;;;17.70;96.90;;;;;;5056014;28;38025;-64
2022/07/29 07:43:44;;;;;;;7.57;2.08;;;17.70;97.00;;;;;;5057383;28;38793;-65
2022/07/29 07:46:11;;;;;;;5.45;1.58;;;17.70;96.60;;;;;;5057545;28;36911;-64
2022/07/29 07:48:39;;;;;;;9.35;1.65;;;17.70;96.60;;;;;;5056723;28;38744;-64
2022/07/29 07:51:07;;;;;;;12.20;2.33;;;17.70;96.50;;;;;;5056580;28;37099;-65
2022/07/29 07:53:34;;;;;;;5.70;1.88;;;17.70;96.60;;;;;;5056207;28;38331;-64
2022/07/29 07:56:04;;;;;;;6.50;1.90;;;17.70;96.70;;;;;;5056715;28;36381;-64
2022/07/29 07:58:31;;;;;;;4.93;1.48;;;17.80;96.60;;;;;;5056303;28;38553;-64
2022/07/29 08:00:58;;;;;;;6.68;1.85;;;17.80;96.60;;;;;;5055933;28;37571;-64
2022/07/29 08:03:26;;;;;;;7.18;1.83;;;17.70;96.70;;;;;;5057591;28;36801;-64
2022/07/29 08:05:54;;;;;;;4.47;1.50;;;17.80;96.90;;;;;;5056331;28;37018;-64
2022/07/29 08:08:21;;;;;;;10.90;1.80;;;17.80;96.90;;;;;;5056747;28;38607;-64
2022/07/29 08:10:55;;;;;;;5.90;1.60;;;17.80;96.90;;;;;;5057515;28;39833;-64
2022/07/29 08:13:26;;;;;;;9.32;1.98;;;17.80;96.80;;;;;;5057287;28;37614;-64
2022/07/29 08:15:58;;;;;;;10.23;1.98;;;17.80;96.80;;;;;;5056517;28;36629;-64
2022/07/29 08:18:26;;;;;;;6.32;1.70;;;17.80;97.10;;;;;;5056488;28;38567;-64
2022/07/29 08:20:54;;;;;;;5.45;1.65;;;17.80;97.20;;;;;;5053534;28;38482;-64
2022/07/29 08:23:22;;;;;;;5.55;1.60;;;17.90;97.00;;;;;;5052819;28;37286;-64
2022/07/29 08:25:49;;;;;;;6.40;1.95;;;17.90;96.90;;;;;;5054559;28;37289;-64
2022/07/29 08:28:17;;;;;;;7.45;2.00;;;17.90;97.20;;;;;;5054199;28;38413;-64
2022/07/29 08:30:46;;;;;;;5.88;1.88;;;17.90;97.30;;;;;;5055455;28;38588;-64
2022/07/29 08:33:13;;;;;;;7.15;1.98;;;18.00;97.30;;;;;;5054947;28;37965;-64
2022/07/29 08:35:40;;;;;;;3.67;1.42;;;18.00;97.40;;;;;;5051228;28;37377;-64
2022/07/29 08:38:08;;;;;;;5.47;1.92;;;18.00;97.30;;;;;;5049972;28;38590;-64
2022/07/29 08:40:36;;;;;;;3.50;1.77;;;18.10;97.10;;;;;;5045153;28;37927;-64
2022/07/29 08:43:07;;;;;;;9.02;2.42;;;18.10;96.70;;;;;;5046538;28;37321;-64
2022/07/29 08:45:44;;;;;;;5.70;1.70;;;18.10;96.60;;;;;;5048385;28;37385;-64
2022/07/29 08:48:14;;;;;;;7.32;1.80;;;18.10;96.60;;;;;;5048717;28;37433;-64
2022/07/29 08:50:43;;;;;;;9.02;1.65;;;18.10;96.30;;;;;;5046865;28;37631;-64
2022/07/29 08:53:12;;;;;;;7.22;2.22;;;18.10;96.00;;;;;;5048838;28;37849;-64
2022/07/29 08:55:41;;;;;;;5.65;1.63;;;18.10;96.00;;;;;;5045578;28;36424;-64
2022/07/29 08:58:09;;;;;;;5.55;1.75;;;18.10;95.70;;;;;;5041981;28;36273;-64
2022/07/29 09:00:40;;;;;;;9.63;3.13;;;18.10;95.60;;;;;;5047175;28;38353;-64
2022/07/29 09:03:10;;;;;;;7.47;2.35;;;18.10;96.00;;;;;;5046594;28;37273;-64
2022/07/29 09:05:42;;;;;;;4.18;1.60;;;18.20;96.20;;;;;;5046587;28;34947;-64
2022/07/29 09:08:09;;;;;;;5.28;1.80;;;18.20;96.10;;;;;;5047563;28;37567;-63
2022/07/29 09:10:37;;;;;;;6.15;2.63;;;18.20;96.60;;;;;;5046846;28;38843;-64
2022/07/29 09:13:04;;;;;;;6.10;2.03;;;18.20;96.50;;;;;;5046134;28;37553;-63
2022/07/29 09:15:32;;;;;;;5.65;1.77;;;18.30;96.70;;;;;;5046865;28;37565;-63
2022/07/29 09:18:00;;;;;;;8.65;1.55;;;18.40;96.20;;;;;;5043290;28;40338;-63
2022/07/29 09:21:57;;;;;;;7.20;2.30;;;18.40;96.10;;;;;;5043755;28;39709;-64
2022/07/29 09:23:16;;;;;;;9.90;1.60;;;18.50;95.90;;;;;;5046377;28;38010;-64
2022/07/29 09:25:43;;;;;;;5.45;2.30;;;18.60;96.10;;;;;;5045621;28;34439;-64
2022/07/29 09:28:13;;;;;;;7.80;1.85;;;18.70;96.30;;;;;;5045853;28;37409;-64
2022/07/29 09:30:51;;;;;;;9.15;2.55;;;18.80;96.20;;;;;;5047081;28;38462;-64
2022/07/29 09:33:18;;;;;;;7.05;2.13;;;18.80;96.10;;;;;;5045176;28;37220;-64
2022/07/29 09:35:46;;;;;;;8.25;2.30;;;18.90;95.90;;;;;;5045400;28;37132;-64
2022/07/29 09:38:13;;;;;;;5.93;2.33;;;18.80;95.40;;;;;;5046182;28;38974;-63
2022/07/29 09:40:56;;;;;;;8.20;2.58;;;18.90;95.20;;;;;;5048993;28;37173;-63
2022/07/29 09:43:23;;;;;;;7.28;2.00;;;18.80;95.00;;;;;;5046610;28;37395;-65
2022/07/29 09:45:51;;;;;;;10.18;2.20;;;18.80;94.90;;;;;;5044644;28;38138;-64
2022/07/29 09:48:20;;;;;;;6.22;2.10;;;18.80;94.90;;;;;;5043894;28;36295;-64
2022/07/29 09:50:49;;;;;;;10.77;2.25;;;18.80;94.50;;;;;;5046017;28;37869;-64
2022/07/29 09:53:32;;;;;;;8.00;2.42;;;18.80;94.60;;;;;;5045116;28;37794;-64
2022/07/29 09:56:00;;;;;;;7.47;1.90;;;18.80;94.70;;;;;;5045384;28;37261;-64
2022/07/29 09:58:28;;;;;;;12.00;2.20;;;18.70;94.80;;;;;;5045912;28;38614;-64
2022/07/29 10:00:56;;;;;;;5.10;1.90;;;18.70;94.80;;;;;;5050026;28;36335;-64
2022/07/29 10:03:24;;;;;;;5.20;1.80;;;18.70;94.90;;;;;;5045629;28;36707;-64
2022/07/29 10:06:06;;;;;;;6.32;1.85;;;18.70;95.40;;;;;;5052563;28;36400;-64
2022/07/29 10:08:33;;;;;;;5.05;1.67;;;18.70;94.90;;;;;;5052695;28;36447;-64
2022/07/29 10:11:13;;;;;;;5.63;1.70;;;18.70;94.90;;;;;;5056743;28;38122;-64
2022/07/29 10:13:42;;;;;;;6.70;1.80;;;18.70;95.40;;;;;;5054901;28;37526;-64
2022/07/29 10:16:10;;;;;;;5.93;2.25;;;18.70;95.90;;;;;;5050407;28;37991;-64
2022/07/29 10:18:39;;;;;;;8.55;2.03;;;18.70;96.30;;;;;;5052325;28;37581;-65
2022/07/29 10:21:07;;;;;;;5.18;1.60;;;18.70;96.00;;;;;;5051807;28;39065;-64
2022/07/29 10:23:35;;;;;;;9.30;1.90;;;18.70;96.00;;;;;;5050934;28;37746;-64
2022/07/29 10:26:03;;;;;;;6.95;2.30;;;18.80;96.40;;;;;;5056923;28;36524;-64
2022/07/29 10:28:32;;;;;;;4.60;2.00;;;18.80;95.60;;;;;;5052685;28;37998;-64
2022/07/29 10:31:03;;;;;;;6.07;1.98;;;18.80;95.50;;;;;;5052967;28;37550;-64
2022/07/29 10:33:43;;;;;;;5.80;2.20;;;18.90;95.90;;;;;;5048228;28;36139;-64
2022/07/29 10:36:25;;;;;;;9.05;2.45;;;19.00;96.20;;;;;;5046999;28;36729;-64
2022/07/29 10:39:01;;;;;;;5.65;1.75;;;19.00;96.00;;;;;;5051239;28;37556;-64
2022/07/29 10:41:46;;;;;;;9.13;2.58;;;19.00;96.40;;;;;;5051342;28;39459;-64
2022/07/29 10:44:20;;;;;;;8.48;2.63;;;19.00;96.60;;;;;;5048963;28;37019;-64
2022/07/29 10:46:48;;;;;;;9.15;2.30;;;19.00;96.20;;;;;;5046043;28;35316;-65
2022/07/29 10:49:16;;;;;;;7.90;2.67;;;19.00;96.10;;;;;;5047851;28;37857;-64
2022/07/29 10:52:02;;;;;;;6.30;1.80;;;19.00;95.80;;;;;;5053191;28;38333;-64
2022/07/29 10:54:51;;;;;;;4.97;1.58;;;19.00;96.10;;;;;;5049128;28;37324;-64
2022/07/29 10:57:25;;;;;;;5.32;1.95;;;19.00;95.80;;;;;;5053484;28;37090;-64
2022/07/29 11:00:28;;;;;;;5.45;2.03;;;19.00;95.70;;;;;;5055245;28;36313;-64
2022/07/29 11:02:57;;;;;;;11.20;2.00;;;19.00;96.50;;;;;;5045021;28;37129;-64
2022/07/29 11:05:29;;;;;;;9.38;2.20;;;19.00;96.30;;;;;;5046817;28;37427;-64
2022/07/29 11:08:23;;;;;;;5.90;2.30;;;19.10;96.40;;;;;;5046766;28;37445;-64
2022/07/29 11:10:52;;;;;;;9.40;2.88;;;19.10;96.00;;;;;;5047122;28;38093;-64
2022/07/29 11:13:51;;;;;;;8.75;2.40;;;19.10;96.10;;;;;;5043817;28;36996;-64
2022/07/29 11:16:21;;;;;;;3.75;1.67;;;19.10;95.50;;;;;;5029915;28;38116;-64
2022/07/29 11:19:20;;;;;;;6.03;2.28;;;19.10;95.40;;;;;;5044740;28;37672;-64
2022/07/29 11:21:49;;;;;;;7.03;2.78;;;19.10;95.60;;;;;;5051310;28;39657;-64
2022/07/29 11:24:20;;;;;;;6.55;2.13;;;19.10;95.50;;;;;;5050614;28;36423;-64
2022/07/29 11:27:09;;;;;;;6.13;2.50;;;19.10;96.00;;;;;;5054081;28;37375;-64
2022/07/29 11:29:41;;;;;;;7.65;2.22;;;19.10;96.10;;;;;;5053751;28;36517;-64
2022/07/29 11:32:15;;;;;;;8.88;2.20;;;19.10;96.10;;;;;;5054051;28;38835;-64
2022/07/29 11:34:43;;;;;;;8.65;2.53;;;19.20;95.80;;;;;;5053250;28;37982;-64
2022/07/29 11:37:18;;;;;;;7.30;2.70;;;19.20;95.70;;;;;;5052811;28;37272;-63
2022/07/29 11:39:48;;;;;;;9.20;2.60;;;19.20;95.40;;;;;;5052245;28;36851;-63
2022/07/29 11:42:49;;;;;;;10.27;2.80;;;19.20;95.40;;;;;;5043279;28;36337;-63
2022/07/29 11:45:23;;;;;;;8.57;3.08;;;19.20;96.10;;;;;;5044850;28;37535;-63
2022/07/29 11:47:54;;;;;;;8.30;2.80;;;19.20;95.90;;;;;;5047029;28;38284;-63
2022/07/29 11:50:36;;;;;;;8.18;2.88;;;19.20;95.90;;;;;;5043076;28;37398;-64
2022/07/29 11:53:11;;;;;;;6.43;2.83;;;19.30;95.90;;;;;;5043488;28;38533;-64
2022/07/29 11:55:40;;;;;;;8.50;3.13;;;19.30;95.60;;;;;;5055090;28;36625;-64
2022/07/29 11:58:07;;;;;;;7.57;2.75;;;19.40;95.60;;;;;;5055272;28;37437;-63
2022/07/29 12:00:37;;;;;;;5.97;2.95;;;19.40;95.70;;;;;;5049419;28;37417;-63
2022/07/29 12:03:10;;;;;;;8.68;2.13;;;19.50;95.80;;;;;;5049166;28;37423;-63
2022/07/29 12:05:39;;;;;;;;;;;19.60;95.80;;;;;;5048330;28;38801;-64
2022/07/29 12:08:16;;;;;;;8.63;2.28;;;19.70;95.60;;;;;;5050390;28;37222;-63
2022/07/29 12:10:45;;;;;;;6.40;2.40;;;19.80;95.20;;;;;;5048017;28;37572;-63
2022/07/29 12:13:13;;;;;;;7.68;3.03;;;19.90;95.00;;;;;;5050640;28;36156;-63
2022/07/29 12:15:41;;;;;;;7.65;2.60;;;19.90;94.80;;;;;;5042927;28;37143;-63
2022/07/29 12:18:21;;;;;;;5.93;2.35;;;20.00;94.80;;;;;;5044945;28;38741;-63
2022/07/29 12:20:49;;;;;;;10.65;2.50;;;20.10;95.40;;;;;;5043366;28;37162;-63
2022/07/29 12:23:17;;;;;;;7.80;2.38;;;20.20;95.30;;;;;;5053865;28;36547;-63
2022/07/29 12:25:45;;;;;;;5.65;2.17;;;20.40;95.00;;;;;;5047285;28;37496;-63
2022/07/29 12:28:15;;;;;;;6.53;2.55;;;20.50;94.70;;;;;;5047405;28;37909;-63
2022/07/29 12:30:45;;;;;;;7.70;3.17;;;20.60;94.30;;;;;;5045227;28;37105;-64
2022/07/29 12:33:15;;;;;;;8.60;2.67;;;20.80;94.20;;;;;;5048005;28;36308;-63
2022/07/29 12:35:46;;;;;;;7.93;2.72;;;20.90;94.00;;;;;;5046995;28;37502;-64
2022/07/29 12:38:14;;;;;;;5.32;2.45;;;20.90;93.80;;;;;;5049028;28;37410;-64
2022/07/29 12:40:42;;;;;;;9.57;2.50;;;21.00;93.70;;;;;;5050265;28;36345;-63
2022/07/29 12:43:11;;;;;;;13.23;2.50;;;21.00;93.10;;;;;;5050539;28;37690;-63
2022/07/29 12:45:39;;;;;;;11.25;3.38;;;21.10;92.90;;;;;;5046713;28;36670;-64
2022/07/29 12:48:09;;;;;;;10.45;2.85;;;21.10;92.50;;;;;;5051631;28;37549;-63
2022/07/29 12:50:36;;;;;;;7.18;2.63;;;21.10;92.80;;;;;;5052945;28;36651;-63
2022/07/29 12:53:13;;;;;;;5.82;2.28;;;21.10;92.80;;;;;;5050455;28;37689;-63
2022/07/29 12:55:48;;;;;;;6.22;2.40;;;21.10;93.00;;;;;;5050487;28;39190;-63
2022/07/29 12:58:27;;;;;;;5.05;2.03;;;21.10;92.90;;;;;;5050142;28;40014;-63
2022/07/29 13:01:11;;;;;;;8.75;1.88;;;21.20;92.70;;;;;;5049882;28;37464;-63
2022/07/29 13:03:52;;;;;;;8.27;2.95;;;21.30;92.90;;;;;;5045109;28;38131;-63